sensor_id;sensor_type;location;lat;lon;timestamp;pressure;altitude;pressure_sealevel;temperature;humidity
31681;BME280;18281;51.364;9.566;2022-12-18T00:01:26;101474.38;;;-10.96;100.00
31681;BME280;18281;51.364;9.566;2022-12-18T00:03:52;101480.97;;;-10.99;100.00
31681;BME280;18281;51.364;9.566;2022-12-18T00:06:17;101477.38;;;-11.03;100.00
31681;BME280;18281;51.364;9.566;2022-12-18T00:08:43;101484.19;;;-11.02;100.00
31681;BME280;18281;51.364;9.566;2022-12-18T00:11:13;101493.47;;;-11.02;100.00
31681;BME280;18281;51.364;9.566;2022-12-18T00:13:39;101495.94;;;-11.04;100.00
31681;BME280;18281;51.364;9.566;2022-12-18T00:16:05;101506.06;;;-11.04;100.00
31681;BME280;18281;51.364;9.566;2022-12-18T00:18:31;101516.03;;;-11.07;100.00
31681;BME280;18281;51.364;9.566;2022-12-18T00:21:00;101510.16;;;-11.06;100.00
31681;BME280;18281;51.364;9.566;2022-12-18T00:23:26;101514.28;;;-11.08;100.00
31681;BME280;18281;51.364;9.566;2022-12-18T00:25:52;101507.47;;;-11.09;100.00
31681;BME280;18281;51.364;9.566;2022-12-18T00:28:17;101503.72;;;-11.16;100.00
31681;BME280;18281;51.364;9.566;2022-12-18T00:30:42;101496.03;;;-11.17;100.00
31681;BME280;18281;51.364;9.566;2022-12-18T00:33:08;101497.66;;;-11.18;100.00
31681;BME280;18281;51.364;9.566;2022-12-18T00:35:33;101493.38;;;-11.19;100.00
31681;BME280;18281;51.364;9.566;2022-12-18T00:37:59;101495.81;;;-11.20;100.00
31681;BME280;18281;51.364;9.566;2022-12-18T00:40:24;101500.19;;;-11.18;100.00
31681;BME280;18281;51.364;9.566;2022-12-18T00:42:49;101501.69;;;-11.21;100.00
31681;BME280;18281;51.364;9.566;2022-12-18T00:45:24;101501.78;;;-11.20;100.00
31681;BME280;18281;51.364;9.566;2022-12-18T00:47:50;101494.88;;;-11.23;100.00
31681;BME280;18281;51.364;9.566;2022-12-18T00:50:15;101493.13;;;-11.24;100.00
31681;BME280;18281;51.364;9.566;2022-12-18T00:52:41;101498.28;;;-11.22;100.00
31681;BME280;18281;51.364;9.566;2022-12-18T00:55:07;101488.84;;;-11.25;100.00
31681;BME280;18281;51.364;9.566;2022-12-18T00:57:33;101499.94;;;-11.23;100.00
31681;BME280;18281;51.364;9.566;2022-12-18T00:59:58;101510.00;;;-11.24;100.00
31681;BME280;18281;51.364;9.566;2022-12-18T01:02:23;101512.53;;;-11.24;100.00
31681;BME280;18281;51.364;9.566;2022-12-18T01:04:49;101508.94;;;-11.28;100.00
31681;BME280;18281;51.364;9.566;2022-12-18T01:07:14;101511.41;;;-11.29;100.00
31681;BME280;18281;51.364;9.566;2022-12-18T01:09:39;101520.84;;;-11.27;100.00
31681;BME280;18281;51.364;9.566;2022-12-18T01:12:05;101519.16;;;-11.26;100.00
31681;BME280;18281;51.364;9.566;2022-12-18T01:14:30;101515.56;;;-11.30;100.00
31681;BME280;18281;51.364;9.566;2022-12-18T01:16:56;101513.84;;;-11.31;100.00
31681;BME280;18281;51.364;9.566;2022-12-18T01:19:21;101519.69;;;-11.32;100.00
31681;BME280;18281;51.364;9.566;2022-12-18T01:21:47;101526.25;;;-11.35;100.00
31681;BME280;18281;51.364;9.566;2022-12-18T01:24:12;101534.63;;;-11.36;100.00
31681;BME280;18281;51.364;9.566;2022-12-18T01:26:37;101531.13;;;-11.38;100.00
31681;BME280;18281;51.364;9.566;2022-12-18T01:29:03;101533.59;;;-11.40;100.00
31681;BME280;18281;51.364;9.566;2022-12-18T01:31:29;101532.63;;;-11.42;100.00
31681;BME280;18281;51.364;9.566;2022-12-18T01:33:55;101535.94;;;-11.43;100.00
31681;BME280;18281;51.364;9.566;2022-12-18T01:36:28;101536.72;;;-11.44;100.00
31681;BME280;18281;51.364;9.566;2022-12-18T01:38:54;101539.84;;;-11.48;100.00
31681;BME280;18281;51.364;9.566;2022-12-18T01:41:21;101524.47;;;-11.51;100.00
31681;BME280;18281;51.364;9.566;2022-12-18T01:43:48;101525.25;;;-11.52;100.00
31681;BME280;18281;51.364;9.566;2022-12-18T01:46:15;101525.25;;;-11.52;100.00
31681;BME280;18281;51.364;9.566;2022-12-18T01:48:40;101524.28;;;-11.54;100.00
31681;BME280;18281;51.364;9.566;2022-12-18T01:51:06;101531.00;;;-11.55;100.00
31681;BME280;18281;51.364;9.566;2022-12-18T01:53:32;101525.84;;;-11.57;100.00
31681;BME280;18281;51.364;9.566;2022-12-18T01:55:58;101526.66;;;-11.58;100.00
31681;BME280;18281;51.364;9.566;2022-12-18T01:58:30;101527.22;;;-11.62;100.00
31681;BME280;18281;51.364;9.566;2022-12-18T02:00:57;101522.06;;;-11.63;100.00
31681;BME280;18281;51.364;9.566;2022-12-18T02:03:26;101527.13;;;-11.63;100.00
31681;BME280;18281;51.364;9.566;2022-12-18T02:08:38;101529.25;;;-11.71;100.00
31681;BME280;18281;51.364;9.566;2022-12-18T02:13:46;101523.09;;;-11.75;100.00
31681;BME280;18281;51.364;9.566;2022-12-18T02:18:50;101525.94;;;-11.83;100.00
31681;BME280;18281;51.364;9.566;2022-12-18T02:24:03;101525.19;;;-11.82;100.00
31681;BME280;18281;51.364;9.566;2022-12-18T02:26:34;101527.63;;;-11.84;100.00
31681;BME280;18281;51.364;9.566;2022-12-18T02:29:08;101525.69;;;-11.88;100.00
31681;BME280;18281;51.364;9.566;2022-12-18T02:31:37;101523.75;;;-11.92;100.00
31681;BME280;18281;51.364;9.566;2022-12-18T02:34:05;101522.84;;;-11.93;100.00
31681;BME280;18281;51.364;9.566;2022-12-18T02:36:32;101526.97;;;-11.95;100.00
31681;BME280;18281;51.364;9.566;2022-12-18T02:38:59;101524.06;;;-12.01;100.00
31681;BME280;18281;51.364;9.566;2022-12-18T02:41:25;101521.25;;;-12.05;100.00
31681;BME280;18281;51.364;9.566;2022-12-18T02:43:59;101528.84;;;-12.05;100.00
31681;BME280;18281;51.364;9.566;2022-12-18T02:46:27;101522.53;;;-12.12;100.00
31681;BME280;18281;51.364;9.566;2022-12-18T02:49:02;101525.94;;;-12.12;100.00
31681;BME280;18281;51.364;9.566;2022-12-18T02:51:31;101529.16;;;-12.14;100.00
31681;BME280;18281;51.364;9.566;2022-12-18T02:54:06;101537.72;;;-12.12;100.00
31681;BME280;18281;51.364;9.566;2022-12-18T02:56:49;101535.69;;;-12.18;100.00
31681;BME280;18281;51.364;9.566;2022-12-18T02:59:17;101537.94;;;-12.22;100.00
31681;BME280;18281;51.364;9.566;2022-12-18T03:07:02;101525.00;;;-12.27;100.00
31681;BME280;18281;51.364;9.566;2022-12-18T03:09:35;101519.72;;;-12.30;100.00
31681;BME280;18281;51.364;9.566;2022-12-18T03:12:35;101512.72;;;-12.34;100.00
31681;BME280;18281;51.364;9.566;2022-12-18T03:15:03;101511.88;;;-12.35;100.00
31681;BME280;18281;51.364;9.566;2022-12-18T03:17:31;101505.72;;;-12.38;100.00
31681;BME280;18281;51.364;9.566;2022-12-18T03:19:58;101502.25;;;-12.41;100.00
31681;BME280;18281;51.364;9.566;2022-12-18T03:22:25;101508.06;;;-12.42;100.00
31681;BME280;18281;51.364;9.566;2022-12-18T03:24:52;101508.84;;;-12.43;100.00
31681;BME280;18281;51.364;9.566;2022-12-18T03:27:19;101506.81;;;-12.48;100.00
31681;BME280;18281;51.364;9.566;2022-12-18T03:29:47;101503.38;;;-12.49;100.00
31681;BME280;18281;51.364;9.566;2022-12-18T03:32:20;101507.41;;;-12.52;100.00
31681;BME280;18281;51.364;9.566;2022-12-18T03:34:49;101508.00;;;-12.56;100.00
31681;BME280;18281;51.364;9.566;2022-12-18T03:37:16;101498.66;;;-12.58;100.00
31681;BME280;18281;51.364;9.566;2022-12-18T03:39:41;101496.88;;;-12.59;100.00
31681;BME280;18281;51.364;9.566;2022-12-18T03:42:25;101497.56;;;-12.61;100.00
31681;BME280;18281;51.364;9.566;2022-12-18T03:44:57;101503.31;;;-12.64;100.00
31681;BME280;18281;51.364;9.566;2022-12-18T03:47:25;101515.97;;;-12.64;100.00
31681;BME280;18281;51.364;9.566;2022-12-18T03:49:56;101506.66;;;-12.65;100.00
31681;BME280;18281;51.364;9.566;2022-12-18T03:52:32;101508.19;;;-12.67;100.00
31681;BME280;18281;51.364;9.566;2022-12-18T03:55:01;101506.06;;;-12.74;100.00
31681;BME280;18281;51.364;9.566;2022-12-18T03:57:28;101503.63;;;-12.72;100.00
31681;BME280;18281;51.364;9.566;2022-12-18T04:00:03;101498.47;;;-12.74;100.00
31681;BME280;18281;51.364;9.566;2022-12-18T04:02:29;101498.84;;;-12.81;100.00
31681;BME280;18281;51.364;9.566;2022-12-18T04:04:57;101501.69;;;-12.77;100.00
31681;BME280;18281;51.364;9.566;2022-12-18T04:07:24;101503.03;;;-12.82;100.00
31681;BME280;18281;51.364;9.566;2022-12-18T04:09:50;101512.25;;;-12.82;100.00
31681;BME280;18281;51.364;9.566;2022-12-18T04:12:18;101511.13;;;-12.87;100.00
31681;BME280;18281;51.364;9.566;2022-12-18T04:14:44;101504.28;;;-12.88;100.00
31681;BME280;18281;51.364;9.566;2022-12-18T04:17:09;101506.63;;;-12.92;100.00
31681;BME280;18281;51.364;9.566;2022-12-18T04:19:35;101501.78;;;-12.88;100.00
31681;BME280;18281;51.364;9.566;2022-12-18T04:22:00;101512.47;;;-12.93;100.00
31681;BME280;18281;51.364;9.566;2022-12-18T04:24:26;101513.22;;;-12.94;100.00
31681;BME280;18281;51.364;9.566;2022-12-18T04:26:51;101521.41;;;-12.98;100.00
31681;BME280;18281;51.364;9.566;2022-12-18T04:29:17;101518.88;;;-12.98;100.00
31681;BME280;18281;51.364;9.566;2022-12-18T04:31:42;101520.50;;;-12.98;100.00
31681;BME280;18281;51.364;9.566;2022-12-18T04:34:07;101522.94;;;-13.00;100.00
31681;BME280;18281;51.364;9.566;2022-12-18T04:36:33;101513.31;;;-13.05;100.00
31681;BME280;18281;51.364;9.566;2022-12-18T04:38:58;101512.44;;;-13.06;100.00
31681;BME280;18281;51.364;9.566;2022-12-18T04:41:24;101519.81;;;-13.09;100.00
31681;BME280;18281;51.364;9.566;2022-12-18T04:43:49;101512.13;;;-13.11;100.00
31681;BME280;18281;51.364;9.566;2022-12-18T04:46:14;101508.56;;;-13.14;100.00
31681;BME280;18281;51.364;9.566;2022-12-18T04:48:40;101516.31;;;-13.11;100.00
31681;BME280;18281;51.364;9.566;2022-12-18T04:51:05;101511.84;;;-13.15;100.00
31681;BME280;18281;51.364;9.566;2022-12-18T04:53:31;101514.94;;;-13.19;100.00
31681;BME280;18281;51.364;9.566;2022-12-18T04:56:06;101522.63;;;-13.18;100.00
31681;BME280;18281;51.364;9.566;2022-12-18T04:58:32;101525.06;;;-13.19;100.00
31681;BME280;18281;51.364;9.566;2022-12-18T05:00:57;101523.31;;;-13.20;100.00
31681;BME280;18281;51.364;9.566;2022-12-18T05:03:23;101526.69;;;-13.20;100.00
31681;BME280;18281;51.364;9.566;2022-12-18T05:05:49;101541.00;;;-13.20;100.00
31681;BME280;18281;51.364;9.566;2022-12-18T05:08:14;101539.03;;;-13.25;100.00
31681;BME280;18281;51.364;9.566;2022-12-18T05:10:40;101541.38;;;-13.28;100.00
31681;BME280;18281;51.364;9.566;2022-12-18T05:13:05;101539.63;;;-13.29;100.00
31681;BME280;18281;51.364;9.566;2022-12-18T05:15:31;101541.72;;;-13.35;100.00
31681;BME280;18281;51.364;9.566;2022-12-18T05:17:57;101540.97;;;-13.34;100.00
31681;BME280;18281;51.364;9.566;2022-12-18T05:20:23;101537.44;;;-13.36;100.00
31681;BME280;18281;51.364;9.566;2022-12-18T05:22:49;101535.50;;;-13.40;100.00
31681;BME280;18281;51.364;9.566;2022-12-18T05:25:14;101541.22;;;-13.43;100.00
31681;BME280;18281;51.364;9.566;2022-12-18T05:27:40;101544.34;;;-13.47;100.00
31681;BME280;18281;51.364;9.566;2022-12-18T05:30:05;101547.81;;;-13.45;100.00
31681;BME280;18281;51.364;9.566;2022-12-18T05:32:31;101550.84;;;-13.50;100.00
31681;BME280;18281;51.364;9.566;2022-12-18T05:34:57;101553.47;;;-13.49;100.00
31681;BME280;18281;51.364;9.566;2022-12-18T05:37:22;101543.47;;;-13.47;100.00
31681;BME280;18281;51.364;9.566;2022-12-18T05:39:48;101556.19;;;-13.46;100.00
31681;BME280;18281;51.364;9.566;2022-12-18T05:42:16;101548.63;;;-13.46;100.00
31681;BME280;18281;51.364;9.566;2022-12-18T05:44:43;101542.38;;;-13.51;100.00
31681;BME280;18281;51.364;9.566;2022-12-18T05:47:08;101536.47;;;-13.51;100.00
31681;BME280;18281;51.364;9.566;2022-12-18T05:49:34;101540.63;;;-13.52;100.00
31681;BME280;18281;51.364;9.566;2022-12-18T05:51:59;101527.78;;;-13.55;100.00
31681;BME280;18281;51.364;9.566;2022-12-18T05:54:26;101523.31;;;-13.59;100.00
31681;BME280;18281;51.364;9.566;2022-12-18T05:56:52;101524.88;;;-13.61;100.00
31681;BME280;18281;51.364;9.566;2022-12-18T05:59:20;101525.31;;;-13.67;100.00
31681;BME280;18281;51.364;9.566;2022-12-18T06:01:45;101529.69;;;-13.64;100.00
31681;BME280;18281;51.364;9.566;2022-12-18T06:04:11;101527.06;;;-13.66;100.00
31681;BME280;18281;51.364;9.566;2022-12-18T06:06:36;101536.75;;;-13.72;100.00
31681;BME280;18281;51.364;9.566;2022-12-18T06:09:02;101536.75;;;-13.72;100.00
31681;BME280;18281;51.364;9.566;2022-12-18T06:11:33;101540.06;;;-13.73;100.00
31681;BME280;18281;51.364;9.566;2022-12-18T06:13:59;101534.44;;;-13.69;100.00
31681;BME280;18281;51.364;9.566;2022-12-18T06:16:25;101533.25;;;-13.74;100.00
31681;BME280;18281;51.364;9.566;2022-12-18T06:18:50;101538.13;;;-13.77;100.00
31681;BME280;18281;51.364;9.566;2022-12-18T06:21:16;101540.63;;;-13.77;100.00
31681;BME280;18281;51.364;9.566;2022-12-18T06:23:41;101542.94;;;-13.80;100.00
31681;BME280;18281;51.364;9.566;2022-12-18T06:26:07;101546.13;;;-13.83;100.00
31681;BME280;18281;51.364;9.566;2022-12-18T06:28:36;101553.81;;;-13.81;100.00
31681;BME280;18281;51.364;9.566;2022-12-18T06:31:02;101546.13;;;-13.83;100.00
31681;BME280;18281;51.364;9.566;2022-12-18T06:33:31;101547.69;;;-13.85;100.00
31681;BME280;18281;51.364;9.566;2022-12-18T06:36:07;101552.63;;;-13.86;100.00
31681;BME280;18281;51.364;9.566;2022-12-18T06:38:33;101551.63;;;-13.88;100.00
31681;BME280;18281;51.364;9.566;2022-12-18T06:41:09;101550.66;;;-13.90;100.00
31681;BME280;18281;51.364;9.566;2022-12-18T06:43:35;101552.19;;;-13.93;100.00
31681;BME280;18281;51.364;9.566;2022-12-18T06:46:04;101560.34;;;-13.97;100.00
31681;BME280;18281;51.364;9.566;2022-12-18T06:48:33;101550.25;;;-13.97;100.00
31681;BME280;18281;51.364;9.566;2022-12-18T06:50:58;101547.81;;;-13.95;100.00
31681;BME280;18281;51.364;9.566;2022-12-18T06:53:24;101555.94;;;-13.99;100.00
31681;BME280;18281;51.364;9.566;2022-12-18T06:55:59;101555.84;;;-14.01;100.00
31681;BME280;18281;51.364;9.566;2022-12-18T06:58:25;101557.72;;;-13.98;100.00
31681;BME280;18281;51.364;9.566;2022-12-18T07:00:54;101550.53;;;-13.92;100.00
31681;BME280;18281;51.364;9.566;2022-12-18T07:03:25;101554.63;;;-13.94;100.00
31681;BME280;18281;51.364;9.566;2022-12-18T07:05:50;101559.00;;;-13.54;100.00
31681;BME280;18281;51.364;9.566;2022-12-18T07:08:26;101558.81;;;-10.98;100.00
31681;BME280;18281;51.364;9.566;2022-12-18T07:10:53;101563.53;;;-9.80;100.00
31681;BME280;18281;51.364;9.566;2022-12-18T07:13:19;101572.97;;;-10.26;100.00
31681;BME280;18281;51.364;9.566;2022-12-18T07:15:50;101573.31;;;-10.81;100.00
31681;BME280;18281;51.364;9.566;2022-12-18T07:18:16;101580.84;;;-11.41;100.00
31681;BME280;18281;51.364;9.566;2022-12-18T07:20:41;101578.41;;;-11.96;100.00
31681;BME280;18281;51.364;9.566;2022-12-18T07:23:10;101580.19;;;-12.35;100.00
31681;BME280;18281;51.364;9.566;2022-12-18T07:25:40;101583.69;;;-12.60;100.00
31681;BME280;18281;51.364;9.566;2022-12-18T07:28:06;101597.56;;;-12.80;100.00
31681;BME280;18281;51.364;9.566;2022-12-18T07:30:31;101604.25;;;-12.94;100.00
31681;BME280;18281;51.364;9.566;2022-12-18T07:32:56;101607.53;;;-13.08;100.00
31681;BME280;18281;51.364;9.566;2022-12-18T07:35:30;101603.50;;;-13.18;100.00
31681;BME280;18281;51.364;9.566;2022-12-18T07:40:32;101610.84;;;-13.34;100.00
31681;BME280;18281;51.364;9.566;2022-12-18T07:43:00;101616.19;;;-12.66;100.00
31681;BME280;18281;51.364;9.566;2022-12-18T07:45:32;101615.97;;;-12.69;100.00
31681;BME280;18281;51.364;9.566;2022-12-18T07:48:06;101617.69;;;-12.95;100.00
31681;BME280;18281;51.364;9.566;2022-12-18T07:50:37;101608.53;;;-13.06;100.00
31681;BME280;18281;51.364;9.566;2022-12-18T07:55:59;101601.63;;;-9.97;100.00
31681;BME280;18281;51.364;9.566;2022-12-18T07:58:28;101604.97;;;-10.44;100.00
31681;BME280;18281;51.364;9.566;2022-12-18T08:01:06;101599.69;;;-10.92;100.00
31681;BME280;18281;51.364;9.566;2022-12-18T08:03:33;101597.41;;;-11.61;100.00
31681;BME280;18281;51.364;9.566;2022-12-18T08:06:00;101590.50;;;-12.05;100.00
31681;BME280;18281;51.364;9.566;2022-12-18T08:08:31;101579.44;;;-12.34;100.00
31681;BME280;18281;51.364;9.566;2022-12-18T08:13:59;101571.81;;;-12.74;100.00
31681;BME280;18281;51.364;9.566;2022-12-18T08:16:38;101577.44;;;-12.92;100.00
31681;BME280;18281;51.364;9.566;2022-12-18T08:19:06;101582.94;;;-12.97;100.00
31681;BME280;18281;51.364;9.566;2022-12-18T08:21:35;101584.56;;;-13.11;100.00
31681;BME280;18281;51.364;9.566;2022-12-18T08:24:09;101577.34;;;-13.18;100.00
31681;BME280;18281;51.364;9.566;2022-12-18T08:26:38;101586.41;;;-13.22;100.00
31681;BME280;18281;51.364;9.566;2022-12-18T08:29:13;101584.00;;;-13.32;100.00
31681;BME280;18281;51.364;9.566;2022-12-18T08:31:39;101584.69;;;-13.35;100.00
31681;BME280;18281;51.364;9.566;2022-12-18T08:34:08;101579.25;;;-13.41;100.00
31681;BME280;18281;51.364;9.566;2022-12-18T08:36:34;101584.16;;;-13.43;100.00
31681;BME280;18281;51.364;9.566;2022-12-18T08:39:09;101578.03;;;-13.21;100.00
31681;BME280;18281;51.364;9.566;2022-12-18T08:41:37;101582.09;;;-12.84;100.00
31681;BME280;18281;51.364;9.566;2022-12-18T08:44:09;101568.91;;;-12.67;100.00
31681;BME280;18281;51.364;9.566;2022-12-18T08:46:56;101566.19;;;-12.56;100.00
31681;BME280;18281;51.364;9.566;2022-12-18T08:49:29;101562.97;;;-12.54;100.00
31681;BME280;18281;51.364;9.566;2022-12-18T08:51:55;101558.09;;;-12.78;100.00
31681;BME280;18281;51.364;9.566;2022-12-18T08:54:22;101560.75;;;-13.01;100.00
31681;BME280;18281;51.364;9.566;2022-12-18T08:56:50;101550.44;;;-13.18;100.00
31681;BME280;18281;51.364;9.566;2022-12-18T08:59:16;101546.81;;;-13.21;100.00
31681;BME280;18281;51.364;9.566;2022-12-18T09:02:02;101554.00;;;-13.28;100.00
31681;BME280;18281;51.364;9.566;2022-12-18T09:04:36;101536.09;;;-13.31;100.00
31681;BME280;18281;51.364;9.566;2022-12-18T09:07:07;101533.75;;;-13.41;100.00
31681;BME280;18281;51.364;9.566;2022-12-18T09:09:34;101543.97;;;-13.39;100.00
31681;BME280;18281;51.364;9.566;2022-12-18T09:12:00;101543.16;;;-13.38;100.00
31681;BME280;18281;51.364;9.566;2022-12-18T09:14:31;101530.44;;;-13.40;100.00
31681;BME280;18281;51.364;9.566;2022-12-18T09:17:03;101538.25;;;-13.37;100.00
31681;BME280;18281;51.364;9.566;2022-12-18T09:19:32;101538.44;;;-13.34;100.00
31681;BME280;18281;51.364;9.566;2022-12-18T09:22:18;101531.81;;;-13.32;100.00
31681;BME280;18281;51.364;9.566;2022-12-18T09:24:59;101535.53;;;-13.27;100.00
31681;BME280;18281;51.364;9.566;2022-12-18T09:27:24;101539.34;;;-13.20;100.00
31681;BME280;18281;51.364;9.566;2022-12-18T09:29:53;101537.91;;;-13.03;100.00
31681;BME280;18281;51.364;9.566;2022-12-18T09:32:32;101538.03;;;-12.88;100.00
31681;BME280;18281;51.364;9.566;2022-12-18T09:35:04;101545.72;;;-12.73;100.00
31681;BME280;18281;51.364;9.566;2022-12-18T09:37:38;101537.69;;;-12.67;100.00
31681;BME280;18281;51.364;9.566;2022-12-18T09:40:12;101538.16;;;-12.60;100.00
31681;BME280;18281;51.364;9.566;2022-12-18T09:42:38;101529.69;;;-12.47;100.00
31681;BME280;18281;51.364;9.566;2022-12-18T09:45:05;101524.63;;;-12.47;100.00
31681;BME280;18281;51.364;9.566;2022-12-18T09:47:34;101524.34;;;-12.51;100.00
31681;BME280;18281;51.364;9.566;2022-12-18T09:50:20;101514.31;;;-12.36;100.00
31681;BME280;18281;51.364;9.566;2022-12-18T09:52:49;101508.56;;;-12.34;100.00
31681;BME280;18281;51.364;9.566;2022-12-18T10:01:09;101522.16;;;-12.18;100.00
31681;BME280;18281;51.364;9.566;2022-12-18T10:03:38;101531.69;;;-12.14;100.00
31681;BME280;18281;51.364;9.566;2022-12-18T10:06:10;101528.75;;;-12.07;100.00
31681;BME280;18281;51.364;9.566;2022-12-18T10:08:46;101529.13;;;-12.01;100.00
31681;BME280;18281;51.364;9.566;2022-12-18T10:11:28;101524.09;;;-11.86;100.00
31681;BME280;18281;51.364;9.566;2022-12-18T10:14:49;101505.78;;;-11.82;100.00
31681;BME280;18281;51.364;9.566;2022-12-18T10:19:26;101499.09;;;-11.66;100.00
31681;BME280;18281;51.364;9.566;2022-12-18T10:22:02;101507.00;;;-11.75;100.00
31681;BME280;18281;51.364;9.566;2022-12-18T10:24:53;101512.00;;;-11.77;100.00
31681;BME280;18281;51.364;9.566;2022-12-18T10:27:25;101504.06;;;-11.68;100.00
31681;BME280;18281;51.364;9.566;2022-12-18T10:29:51;101503.50;;;-11.49;100.00
31681;BME280;18281;51.364;9.566;2022-12-18T10:32:18;101510.16;;;-11.36;100.00
31681;BME280;18281;51.364;9.566;2022-12-18T10:34:49;101506.06;;;-11.19;100.00
31681;BME280;18281;51.364;9.566;2022-12-18T10:37:18;101503.19;;;-11.10;100.00
31681;BME280;18281;51.364;9.566;2022-12-18T10:40:04;101509.72;;;-10.84;100.00
31681;BME280;18281;51.364;9.566;2022-12-18T10:42:34;101503.53;;;-10.58;100.00
31681;BME280;18281;51.364;9.566;2022-12-18T10:45:01;101515.59;;;-10.22;100.00
31681;BME280;18281;51.364;9.566;2022-12-18T10:47:27;101511.47;;;-10.20;100.00
31681;BME280;18281;51.364;9.566;2022-12-18T10:49:53;101507.53;;;-9.98;100.00
31681;BME280;18281;51.364;9.566;2022-12-18T10:52:24;101502.69;;;-9.77;100.00
31681;BME280;18281;51.364;9.566;2022-12-18T10:54:51;101497.44;;;-9.47;100.00
31681;BME280;18281;51.364;9.566;2022-12-18T10:59:52;101481.16;;;-9.16;100.00
31681;BME280;18281;51.364;9.566;2022-12-18T11:07:54;101450.78;;;-8.95;100.00
31681;BME280;18281;51.364;9.566;2022-12-18T11:10:20;101445.47;;;-9.00;100.00
31681;BME280;18281;51.364;9.566;2022-12-18T11:12:46;101439.00;;;-8.75;100.00
31681;BME280;18281;51.364;9.566;2022-12-18T11:15:16;101449.25;;;-8.92;100.00
31681;BME280;18281;51.364;9.566;2022-12-18T11:17:44;101443.13;;;-8.95;100.00
31681;BME280;18281;51.364;9.566;2022-12-18T11:20:20;101436.47;;;-8.93;100.00
31681;BME280;18281;51.364;9.566;2022-12-18T11:22:56;101430.78;;;-8.88;100.00
31681;BME280;18281;51.364;9.566;2022-12-18T11:25:22;101414.47;;;-8.91;100.00
31681;BME280;18281;51.364;9.566;2022-12-18T11:27:51;101403.38;;;-8.93;100.00
31681;BME280;18281;51.364;9.566;2022-12-18T11:30:21;101389.84;;;-6.68;100.00
31681;BME280;18281;51.364;9.566;2022-12-18T11:32:51;101413.16;;;-6.13;100.00
31681;BME280;18281;51.364;9.566;2022-12-18T11:37:53;101443.75;;;-7.05;100.00
31681;BME280;18281;51.364;9.566;2022-12-18T11:40:27;101446.56;;;-7.20;100.00
31681;BME280;18281;51.364;9.566;2022-12-18T11:42:58;101440.53;;;-7.43;100.00
31681;BME280;18281;51.364;9.566;2022-12-18T11:45:28;101428.47;;;-7.67;100.00
31681;BME280;18281;51.364;9.566;2022-12-18T11:47:56;101418.69;;;-7.77;100.00
31681;BME280;18281;51.364;9.566;2022-12-18T11:50:26;101407.22;;;-7.87;100.00
31681;BME280;18281;51.364;9.566;2022-12-18T11:52:53;101397.72;;;-7.91;100.00
31681;BME280;18281;51.364;9.566;2022-12-18T12:00:39;101391.69;;;-8.13;100.00
31681;BME280;18281;51.364;9.566;2022-12-18T12:39:59;101321.13;;;-8.14;100.00
31681;BME280;18281;51.364;9.566;2022-12-18T12:42:35;101308.28;;;-8.17;100.00
31681;BME280;18281;51.364;9.566;2022-12-18T12:51:22;101314.09;;;-8.20;100.00
31681;BME280;18281;51.364;9.566;2022-12-18T12:54:14;101314.16;;;-8.18;100.00
31681;BME280;18281;51.364;9.566;2022-12-18T12:56:51;101310.03;;;-8.16;100.00
31681;BME280;18281;51.364;9.566;2022-12-18T12:59:44;101312.41;;;-8.19;100.00
31681;BME280;18281;51.364;9.566;2022-12-18T13:02:36;101306.47;;;-8.20;100.00
31681;BME280;18281;51.364;9.566;2022-12-18T13:05:14;101309.00;;;-8.20;100.00
31681;BME280;18281;51.364;9.566;2022-12-18T13:07:59;101311.69;;;-8.16;100.00
31681;BME280;18281;51.364;9.566;2022-12-18T13:15:22;101304.19;;;-8.13;100.00
31681;BME280;18281;51.364;9.566;2022-12-18T13:20:35;101310.16;;;-8.13;100.00
31681;BME280;18281;51.364;9.566;2022-12-18T13:23:17;101309.28;;;-8.13;100.00
31681;BME280;18281;51.364;9.566;2022-12-18T13:25:44;101317.06;;;-8.10;100.00
31681;BME280;18281;51.364;9.566;2022-12-18T13:28:12;101312.88;;;-8.08;100.00
31681;BME280;18281;51.364;9.566;2022-12-18T13:30:46;101302.78;;;-8.07;100.00
31681;BME280;18281;51.364;9.566;2022-12-18T13:38:21;101324.63;;;-8.12;100.00
31681;BME280;18281;51.364;9.566;2022-12-18T13:45:45;101317.84;;;-8.11;100.00
31681;BME280;18281;51.364;9.566;2022-12-18T13:48:15;101300.41;;;-8.02;100.00
31681;BME280;18281;51.364;9.566;2022-12-18T13:50:41;101296.09;;;-8.03;100.00
31681;BME280;18281;51.364;9.566;2022-12-18T13:53:07;101288.44;;;-8.03;100.00
31681;BME280;18281;51.364;9.566;2022-12-18T13:55:44;101289.19;;;-8.06;100.00
31681;BME280;18281;51.364;9.566;2022-12-18T13:58:11;101286.78;;;-8.02;100.00
31681;BME280;18281;51.364;9.566;2022-12-18T14:00:40;101285.91;;;-8.03;100.00
31681;BME280;18281;51.364;9.566;2022-12-18T14:03:17;101282.63;;;-8.00;100.00
31681;BME280;18281;51.364;9.566;2022-12-18T14:05:43;101285.28;;;-7.97;100.00
31681;BME280;18281;51.364;9.566;2022-12-18T14:08:14;101292.19;;;-7.95;100.00
31681;BME280;18281;51.364;9.566;2022-12-18T14:10:44;101282.81;;;-7.96;100.00
31681;BME280;18281;51.364;9.566;2022-12-18T14:16:18;101283.63;;;-7.97;100.00
31681;BME280;18281;51.364;9.566;2022-12-18T14:19:23;101268.31;;;-7.97;100.00
31681;BME280;18281;51.364;9.566;2022-12-18T14:25:17;101260.78;;;-7.94;100.00
31681;BME280;18281;51.364;9.566;2022-12-18T14:34:09;101266.84;;;-7.92;100.00
31681;BME280;18281;51.364;9.566;2022-12-18T14:55:43;101293.81;;;-6.38;100.00
31681;BME280;18281;51.364;9.566;2022-12-18T14:59:31;101292.50;;;-6.53;100.00
31681;BME280;18281;51.364;9.566;2022-12-18T15:39:38;101278.47;;;-7.55;100.00
31681;BME280;18281;51.364;9.566;2022-12-18T15:42:04;101272.53;;;-7.55;100.00
31681;BME280;18281;51.364;9.566;2022-12-18T15:44:48;101267.41;;;-7.55;100.00